sensor_id;sensor_type;location;lat;lon;timestamp;P1;durP1;ratioP1;P2;durP2;ratioP2
59530;SDS011;45349;48.692;8.186;2024-02-21T00:01:50;9.67;;;2.53;;
59530;SDS011;45349;48.692;8.186;2024-02-21T00:04:17;9.47;;;2.63;;
59530;SDS011;45349;48.692;8.186;2024-02-21T00:06:45;12.70;;;2.57;;
59530;SDS011;45349;48.692;8.186;2024-02-21T00:09:13;7.33;;;2.33;;
59530;SDS011;45349;48.692;8.186;2024-02-21T00:11:40;10.67;;;2.10;;
59530;SDS011;45349;48.692;8.186;2024-02-21T00:14:06;11.37;;;2.23;;
59530;SDS011;45349;48.692;8.186;2024-02-21T00:16:33;14.20;;;2.60;;
59530;SDS011;45349;48.692;8.186;2024-02-21T00:18:59;14.50;;;2.73;;
59530;SDS011;45349;48.692;8.186;2024-02-21T00:21:26;14.30;;;3.03;;
59530;SDS011;45349;48.692;8.186;2024-02-21T00:23:53;9.37;;;2.30;;
59530;SDS011;45349;48.692;8.186;2024-02-21T00:26:21;9.23;;;2.10;;
59530;SDS011;45349;48.692;8.186;2024-02-21T00:28:47;10.77;;;2.13;;
59530;SDS011;45349;48.692;8.186;2024-02-21T00:31:14;9.17;;;2.17;;
59530;SDS011;45349;48.692;8.186;2024-02-21T00:33:41;10.50;;;2.27;;
59530;SDS011;45349;48.692;8.186;2024-02-21T00:36:07;10.97;;;2.07;;
59530;SDS011;45349;48.692;8.186;2024-02-21T00:38:34;9.77;;;2.13;;
59530;SDS011;45349;48.692;8.186;2024-02-21T00:41:01;7.47;;;2.10;;
59530;SDS011;45349;48.692;8.186;2024-02-21T00:43:29;10.33;;;2.23;;
59530;SDS011;45349;48.692;8.186;2024-02-21T00:45:55;8.33;;;2.17;;
59530;SDS011;45349;48.692;8.186;2024-02-21T00:48:22;8.77;;;2.27;;
59530;SDS011;45349;48.692;8.186;2024-02-21T00:50:49;11.60;;;2.83;;
59530;SDS011;45349;48.692;8.186;2024-02-21T00:53:15;10.43;;;2.53;;
59530;SDS011;45349;48.692;8.186;2024-02-21T00:55:42;7.00;;;2.40;;
59530;SDS011;45349;48.692;8.186;2024-02-21T00:58:09;10.30;;;3.20;;
59530;SDS011;45349;48.692;8.186;2024-02-21T01:00:37;10.83;;;2.10;;
59530;SDS011;45349;48.692;8.186;2024-02-21T01:03:03;6.83;;;2.23;;
59530;SDS011;45349;48.692;8.186;2024-02-21T01:05:30;10.00;;;2.80;;
59530;SDS011;45349;48.692;8.186;2024-02-21T01:07:57;11.10;;;2.47;;
59530;SDS011;45349;48.692;8.186;2024-02-21T01:10:23;9.23;;;2.40;;
59530;SDS011;45349;48.692;8.186;2024-02-21T01:12:50;12.63;;;2.73;;
59530;SDS011;45349;48.692;8.186;2024-02-21T01:15:16;6.87;;;2.63;;
59530;SDS011;45349;48.692;8.186;2024-02-21T01:17:45;9.20;;;2.80;;
59530;SDS011;45349;48.692;8.186;2024-02-21T01:20:11;10.70;;;2.40;;
59530;SDS011;45349;48.692;8.186;2024-02-21T01:22:38;11.27;;;2.53;;
59530;SDS011;45349;48.692;8.186;2024-02-21T01:25:05;12.77;;;2.40;;
59530;SDS011;45349;48.692;8.186;2024-02-21T01:27:32;11.07;;;2.50;;
59530;SDS011;45349;48.692;8.186;2024-02-21T01:29:59;10.20;;;2.60;;
59530;SDS011;45349;48.692;8.186;2024-02-21T01:32:25;8.83;;;2.23;;
59530;SDS011;45349;48.692;8.186;2024-02-21T01:34:53;9.10;;;2.20;;
59530;SDS011;45349;48.692;8.186;2024-02-21T01:37:20;7.30;;;2.03;;
59530;SDS011;45349;48.692;8.186;2024-02-21T01:39:47;11.10;;;2.30;;
59530;SDS011;45349;48.692;8.186;2024-02-21T01:42:14;7.30;;;2.30;;
59530;SDS011;45349;48.692;8.186;2024-02-21T01:44:41;8.53;;;2.30;;
59530;SDS011;45349;48.692;8.186;2024-02-21T01:47:08;8.60;;;2.20;;
59530;SDS011;45349;48.692;8.186;2024-02-21T01:49:34;11.80;;;2.17;;
59530;SDS011;45349;48.692;8.186;2024-02-21T01:52:03;9.47;;;2.27;;
59530;SDS011;45349;48.692;8.186;2024-02-21T01:54:30;7.43;;;2.20;;
59530;SDS011;45349;48.692;8.186;2024-02-21T01:56:57;9.50;;;2.07;;
59530;SDS011;45349;48.692;8.186;2024-02-21T01:59:24;10.00;;;2.43;;
59530;SDS011;45349;48.692;8.186;2024-02-21T02:01:51;8.43;;;2.20;;
59530;SDS011;45349;48.692;8.186;2024-02-21T02:04:18;11.87;;;2.40;;
59530;SDS011;45349;48.692;8.186;2024-02-21T02:06:46;11.27;;;2.30;;
59530;SDS011;45349;48.692;8.186;2024-02-21T02:09:14;6.27;;;2.03;;
59530;SDS011;45349;48.692;8.186;2024-02-21T02:11:42;9.27;;;2.33;;
59530;SDS011;45349;48.692;8.186;2024-02-21T02:14:09;9.77;;;2.10;;
59530;SDS011;45349;48.692;8.186;2024-02-21T02:16:36;10.53;;;2.33;;
59530;SDS011;45349;48.692;8.186;2024-02-21T02:19:02;5.33;;;2.10;;
59530;SDS011;45349;48.692;8.186;2024-02-21T02:21:29;9.43;;;2.00;;
59530;SDS011;45349;48.692;8.186;2024-02-21T02:24:00;10.33;;;2.60;;
59530;SDS011;45349;48.692;8.186;2024-02-21T02:26:26;7.37;;;2.30;;
59530;SDS011;45349;48.692;8.186;2024-02-21T02:28:53;11.50;;;2.50;;
59530;SDS011;45349;48.692;8.186;2024-02-21T02:31:20;9.87;;;2.37;;
59530;SDS011;45349;48.692;8.186;2024-02-21T02:33:45;11.43;;;2.70;;
59530;SDS011;45349;48.692;8.186;2024-02-21T02:36:13;12.67;;;1.97;;
59530;SDS011;45349;48.692;8.186;2024-02-21T02:38:39;11.27;;;2.17;;
59530;SDS011;45349;48.692;8.186;2024-02-21T02:41:07;5.60;;;1.90;;
59530;SDS011;45349;48.692;8.186;2024-02-21T02:43:34;9.27;;;2.37;;
59530;SDS011;45349;48.692;8.186;2024-02-21T02:46:01;7.43;;;1.60;;
59530;SDS011;45349;48.692;8.186;2024-02-21T02:48:28;9.23;;;1.97;;
59530;SDS011;45349;48.692;8.186;2024-02-21T02:50:55;9.93;;;1.93;;
59530;SDS011;45349;48.692;8.186;2024-02-21T02:53:22;5.20;;;1.93;;
59530;SDS011;45349;48.692;8.186;2024-02-21T02:55:48;8.07;;;2.27;;
59530;SDS011;45349;48.692;8.186;2024-02-21T02:58:15;7.97;;;2.47;;
59530;SDS011;45349;48.692;8.186;2024-02-21T03:00:42;8.40;;;3.03;;
59530;SDS011;45349;48.692;8.186;2024-02-21T03:03:09;6.27;;;1.80;;
59530;SDS011;45349;48.692;8.186;2024-02-21T03:05:38;14.00;;;2.23;;
59530;SDS011;45349;48.692;8.186;2024-02-21T03:08:05;6.90;;;2.17;;
59530;SDS011;45349;48.692;8.186;2024-02-21T03:10:33;10.13;;;2.27;;
59530;SDS011;45349;48.692;8.186;2024-02-21T03:13:00;7.00;;;2.07;;
59530;SDS011;45349;48.692;8.186;2024-02-21T03:15:28;6.93;;;1.93;;
59530;SDS011;45349;48.692;8.186;2024-02-21T03:17:54;10.33;;;2.27;;
59530;SDS011;45349;48.692;8.186;2024-02-21T03:20:21;5.57;;;1.77;;
59530;SDS011;45349;48.692;8.186;2024-02-21T03:22:48;8.57;;;2.13;;
59530;SDS011;45349;48.692;8.186;2024-02-21T03:25:15;7.33;;;2.00;;
59530;SDS011;45349;48.692;8.186;2024-02-21T03:27:41;6.80;;;2.10;;
59530;SDS011;45349;48.692;8.186;2024-02-21T03:30:08;14.03;;;2.27;;
59530;SDS011;45349;48.692;8.186;2024-02-21T03:32:37;8.73;;;1.93;;
59530;SDS011;45349;48.692;8.186;2024-02-21T03:35:04;10.05;;;2.65;;
59530;SDS011;45349;48.692;8.186;2024-02-21T03:37:31;7.87;;;2.60;;
59530;SDS011;45349;48.692;8.186;2024-02-21T03:39:57;12.90;;;2.90;;
59530;SDS011;45349;48.692;8.186;2024-02-21T03:42:24;11.43;;;2.57;;
59530;SDS011;45349;48.692;8.186;2024-02-21T03:44:51;12.27;;;2.50;;
59530;SDS011;45349;48.692;8.186;2024-02-21T03:47:17;6.53;;;2.00;;
59530;SDS011;45349;48.692;8.186;2024-02-21T03:49:45;11.60;;;2.63;;
59530;SDS011;45349;48.692;8.186;2024-02-21T03:52:12;21.27;;;4.70;;
59530;SDS011;45349;48.692;8.186;2024-02-21T03:54:39;8.37;;;3.17;;
59530;SDS011;45349;48.692;8.186;2024-02-21T03:57:05;11.67;;;2.73;;
59530;SDS011;45349;48.692;8.186;2024-02-21T03:59:32;11.17;;;2.87;;
59530;SDS011;45349;48.692;8.186;2024-02-21T04:01:59;12.47;;;2.90;;
59530;SDS011;45349;48.692;8.186;2024-02-21T04:04:26;5.93;;;2.23;;
59530;SDS011;45349;48.692;8.186;2024-02-21T04:06:54;8.20;;;3.63;;
59530;SDS011;45349;48.692;8.186;2024-02-21T04:09:20;6.37;;;2.17;;
59530;SDS011;45349;48.692;8.186;2024-02-21T04:11:47;12.03;;;2.33;;
59530;SDS011;45349;48.692;8.186;2024-02-21T04:14:13;10.20;;;2.83;;
59530;SDS011;45349;48.692;8.186;2024-02-21T04:16:40;8.67;;;2.73;;
59530;SDS011;45349;48.692;8.186;2024-02-21T04:19:07;8.97;;;2.30;;
59530;SDS011;45349;48.692;8.186;2024-02-21T04:21:34;9.73;;;2.47;;
59530;SDS011;45349;48.692;8.186;2024-02-21T04:24:02;9.73;;;2.70;;
59530;SDS011;45349;48.692;8.186;2024-02-21T04:26:30;10.50;;;2.40;;
59530;SDS011;45349;48.692;8.186;2024-02-21T04:28:57;12.13;;;2.60;;
59530;SDS011;45349;48.692;8.186;2024-02-21T04:31:23;8.90;;;2.10;;
59530;SDS011;45349;48.692;8.186;2024-02-21T04:33:50;12.33;;;2.33;;
59530;SDS011;45349;48.692;8.186;2024-02-21T04:36:17;8.00;;;2.50;;
59530;SDS011;45349;48.692;8.186;2024-02-21T04:38:44;12.33;;;2.53;;
59530;SDS011;45349;48.692;8.186;2024-02-21T04:41:12;6.83;;;2.37;;
59530;SDS011;45349;48.692;8.186;2024-02-21T04:43:39;9.67;;;2.83;;
59530;SDS011;45349;48.692;8.186;2024-02-21T04:46:06;6.67;;;2.60;;
59530;SDS011;45349;48.692;8.186;2024-02-21T04:48:32;9.17;;;2.20;;
59530;SDS011;45349;48.692;8.186;2024-02-21T04:50:59;11.20;;;2.37;;
59530;SDS011;45349;48.692;8.186;2024-02-21T04:53:25;9.50;;;2.50;;
59530;SDS011;45349;48.692;8.186;2024-02-21T04:55:52;10.10;;;2.73;;
59530;SDS011;45349;48.692;8.186;2024-02-21T04:58:20;7.53;;;2.40;;
59530;SDS011;45349;48.692;8.186;2024-02-21T05:00:47;11.77;;;2.80;;
59530;SDS011;45349;48.692;8.186;2024-02-21T05:03:13;10.57;;;2.70;;
59530;SDS011;45349;48.692;8.186;2024-02-21T05:05:40;6.20;;;2.10;;
59530;SDS011;45349;48.692;8.186;2024-02-21T05:08:07;9.17;;;2.93;;
59530;SDS011;45349;48.692;8.186;2024-02-21T05:10:36;10.67;;;2.50;;
59530;SDS011;45349;48.692;8.186;2024-02-21T05:13:03;6.50;;;2.50;;
59530;SDS011;45349;48.692;8.186;2024-02-21T05:15:31;9.63;;;2.97;;
59530;SDS011;45349;48.692;8.186;2024-02-21T05:17:58;9.03;;;2.43;;
59530;SDS011;45349;48.692;8.186;2024-02-21T05:20:24;7.63;;;2.53;;
59530;SDS011;45349;48.692;8.186;2024-02-21T05:22:51;9.10;;;2.27;;
59530;SDS011;45349;48.692;8.186;2024-02-21T05:25:18;9.67;;;2.57;;
59530;SDS011;45349;48.692;8.186;2024-02-21T05:27:45;8.17;;;2.13;;
59530;SDS011;45349;48.692;8.186;2024-02-21T05:30:11;9.83;;;2.70;;
59530;SDS011;45349;48.692;8.186;2024-02-21T05:32:39;10.57;;;3.03;;
59530;SDS011;45349;48.692;8.186;2024-02-21T05:35:06;10.60;;;2.50;;
59530;SDS011;45349;48.692;8.186;2024-02-21T05:37:33;11.13;;;2.80;;
59530;SDS011;45349;48.692;8.186;2024-02-21T05:40:00;12.30;;;2.73;;
59530;SDS011;45349;48.692;8.186;2024-02-21T05:42:27;11.70;;;2.47;;
59530;SDS011;45349;48.692;8.186;2024-02-21T05:44:53;12.17;;;3.03;;
59530;SDS011;45349;48.692;8.186;2024-02-21T05:47:20;10.40;;;2.63;;
59530;SDS011;45349;48.692;8.186;2024-02-21T05:49:48;7.23;;;2.80;;
59530;SDS011;45349;48.692;8.186;2024-02-21T05:52:18;10.20;;;2.97;;
59530;SDS011;45349;48.692;8.186;2024-02-21T05:54:45;13.57;;;3.27;;
59530;SDS011;45349;48.692;8.186;2024-02-21T05:57:11;6.87;;;2.40;;
59530;SDS011;45349;48.692;8.186;2024-02-21T05:59:38;9.73;;;3.67;;
59530;SDS011;45349;48.692;8.186;2024-02-21T06:02:07;8.63;;;3.03;;
59530;SDS011;45349;48.692;8.186;2024-02-21T06:04:33;11.83;;;3.33;;
59530;SDS011;45349;48.692;8.186;2024-02-21T06:07:01;12.27;;;3.80;;
59530;SDS011;45349;48.692;8.186;2024-02-21T06:09:28;9.30;;;3.80;;
59530;SDS011;45349;48.692;8.186;2024-02-21T06:11:55;12.23;;;4.53;;
59530;SDS011;45349;48.692;8.186;2024-02-21T06:14:21;15.67;;;4.77;;
59530;SDS011;45349;48.692;8.186;2024-02-21T06:16:48;9.47;;;3.67;;
59530;SDS011;45349;48.692;8.186;2024-02-21T06:19:15;13.70;;;4.33;;
59530;SDS011;45349;48.692;8.186;2024-02-21T06:21:41;12.53;;;3.87;;
59530;SDS011;45349;48.692;8.186;2024-02-21T06:24:09;9.10;;;3.83;;
59530;SDS011;45349;48.692;8.186;2024-02-21T06:26:37;13.07;;;2.90;;
59530;SDS011;45349;48.692;8.186;2024-02-21T06:29:05;7.13;;;2.90;;
59530;SDS011;45349;48.692;8.186;2024-02-21T06:31:32;8.40;;;2.97;;
59530;SDS011;45349;48.692;8.186;2024-02-21T06:33:58;11.07;;;3.07;;
59530;SDS011;45349;48.692;8.186;2024-02-21T06:36:25;7.10;;;2.60;;
59530;SDS011;45349;48.692;8.186;2024-02-21T06:38:51;17.37;;;3.53;;
59530;SDS011;45349;48.692;8.186;2024-02-21T06:41:20;8.20;;;3.00;;
59530;SDS011;45349;48.692;8.186;2024-02-21T06:43:46;9.67;;;3.20;;
59530;SDS011;45349;48.692;8.186;2024-02-21T06:46:22;10.53;;;3.40;;
59530;SDS011;45349;48.692;8.186;2024-02-21T06:48:52;9.87;;;3.60;;
59530;SDS011;45349;48.692;8.186;2024-02-21T06:51:18;12.17;;;3.07;;
59530;SDS011;45349;48.692;8.186;2024-02-21T06:53:48;18.33;;;9.97;;
59530;SDS011;45349;48.692;8.186;2024-02-21T06:56:14;13.93;;;5.67;;
59530;SDS011;45349;48.692;8.186;2024-02-21T06:58:42;10.60;;;3.90;;
59530;SDS011;45349;48.692;8.186;2024-02-21T07:01:09;9.40;;;3.92;;
59530;SDS011;45349;48.692;8.186;2024-02-21T07:03:36;11.33;;;4.70;;
59530;SDS011;45349;48.692;8.186;2024-02-21T07:06:03;18.10;;;3.60;;
59530;SDS011;45349;48.692;8.186;2024-02-21T07:08:30;13.73;;;6.33;;
59530;SDS011;45349;48.692;8.186;2024-02-21T07:10:57;15.43;;;4.93;;
59530;SDS011;45349;48.692;8.186;2024-02-21T07:13:23;13.67;;;7.43;;
59530;SDS011;45349;48.692;8.186;2024-02-21T07:15:51;10.10;;;4.90;;
59530;SDS011;45349;48.692;8.186;2024-02-21T07:18:18;6.70;;;2.80;;
59530;SDS011;45349;48.692;8.186;2024-02-21T07:20:45;10.00;;;3.90;;
59530;SDS011;45349;48.692;8.186;2024-02-21T07:23:11;14.50;;;3.47;;
59530;SDS011;45349;48.692;8.186;2024-02-21T07:25:38;10.43;;;4.50;;
59530;SDS011;45349;48.692;8.186;2024-02-21T07:28:05;12.10;;;3.23;;
59530;SDS011;45349;48.692;8.186;2024-02-21T07:30:33;12.30;;;2.87;;
59530;SDS011;45349;48.692;8.186;2024-02-21T07:33:01;9.50;;;2.90;;
59530;SDS011;45349;48.692;8.186;2024-02-21T07:35:28;12.17;;;3.30;;
59530;SDS011;45349;48.692;8.186;2024-02-21T07:37:55;9.70;;;2.90;;
59530;SDS011;45349;48.692;8.186;2024-02-21T07:40:21;13.80;;;2.63;;
59530;SDS011;45349;48.692;8.186;2024-02-21T07:42:49;10.47;;;3.40;;
59530;SDS011;45349;48.692;8.186;2024-02-21T07:45:15;7.67;;;2.27;;
59530;SDS011;45349;48.692;8.186;2024-02-21T07:47:43;5.87;;;2.07;;
59530;SDS011;45349;48.692;8.186;2024-02-21T07:50:11;7.33;;;2.03;;
59530;SDS011;45349;48.692;8.186;2024-02-21T07:52:38;7.50;;;1.97;;
59530;SDS011;45349;48.692;8.186;2024-02-21T07:55:05;12.83;;;2.73;;
59530;SDS011;45349;48.692;8.186;2024-02-21T07:57:32;10.40;;;2.90;;
59530;SDS011;45349;48.692;8.186;2024-02-21T07:59:58;9.83;;;2.50;;
59530;SDS011;45349;48.692;8.186;2024-02-21T08:02:25;10.17;;;2.93;;
59530;SDS011;45349;48.692;8.186;2024-02-21T08:04:52;12.23;;;5.70;;
59530;SDS011;45349;48.692;8.186;2024-02-21T08:07:20;9.57;;;3.47;;
59530;SDS011;45349;48.692;8.186;2024-02-21T08:09:46;13.30;;;2.50;;
59530;SDS011;45349;48.692;8.186;2024-02-21T08:12:13;10.70;;;3.47;;
59530;SDS011;45349;48.692;8.186;2024-02-21T08:14:40;12.70;;;5.60;;
59530;SDS011;45349;48.692;8.186;2024-02-21T08:17:06;13.57;;;5.63;;
59530;SDS011;45349;48.692;8.186;2024-02-21T08:19:34;11.60;;;4.50;;
59530;SDS011;45349;48.692;8.186;2024-02-21T08:22:01;9.50;;;3.93;;
59530;SDS011;45349;48.692;8.186;2024-02-21T08:24:29;10.47;;;3.27;;
59530;SDS011;45349;48.692;8.186;2024-02-21T08:26:56;12.63;;;4.00;;
59530;SDS011;45349;48.692;8.186;2024-02-21T08:29:23;6.90;;;2.87;;
59530;SDS011;45349;48.692;8.186;2024-02-21T08:31:49;8.50;;;3.03;;
59530;SDS011;45349;48.692;8.186;2024-02-21T08:34:16;8.23;;;2.90;;
59530;SDS011;45349;48.692;8.186;2024-02-21T08:36:43;12.33;;;2.80;;
59530;SDS011;45349;48.692;8.186;2024-02-21T08:39:10;17.27;;;5.80;;
59530;SDS011;45349;48.692;8.186;2024-02-21T08:41:41;10.67;;;4.47;;
59530;SDS011;45349;48.692;8.186;2024-02-21T08:44:08;16.57;;;4.37;;
59530;SDS011;45349;48.692;8.186;2024-02-21T08:46:35;10.93;;;5.13;;
59530;SDS011;45349;48.692;8.186;2024-02-21T08:49:03;9.73;;;4.60;;
59530;SDS011;45349;48.692;8.186;2024-02-21T08:51:30;12.13;;;3.80;;
59530;SDS011;45349;48.692;8.186;2024-02-21T08:53:56;12.20;;;4.13;;
59530;SDS011;45349;48.692;8.186;2024-02-21T08:56:24;11.90;;;4.00;;
59530;SDS011;45349;48.692;8.186;2024-02-21T08:58:52;10.13;;;3.80;;
59530;SDS011;45349;48.692;8.186;2024-02-21T09:01:18;16.70;;;5.20;;
59530;SDS011;45349;48.692;8.186;2024-02-21T09:03:46;10.27;;;4.30;;
59530;SDS011;45349;48.692;8.186;2024-02-21T09:06:12;14.70;;;5.60;;
59530;SDS011;45349;48.692;8.186;2024-02-21T09:08:39;13.47;;;4.27;;
59530;SDS011;45349;48.692;8.186;2024-02-21T09:11:06;9.53;;;3.03;;
59530;SDS011;45349;48.692;8.186;2024-02-21T09:13:33;10.83;;;3.87;;
59530;SDS011;45349;48.692;8.186;2024-02-21T09:16:01;11.10;;;3.33;;
59530;SDS011;45349;48.692;8.186;2024-02-21T09:18:27;8.73;;;2.90;;
59530;SDS011;45349;48.692;8.186;2024-02-21T09:20:54;9.37;;;2.60;;
59530;SDS011;45349;48.692;8.186;2024-02-21T09:23:23;11.70;;;3.40;;
59530;SDS011;45349;48.692;8.186;2024-02-21T09:25:50;9.53;;;3.50;;
59530;SDS011;45349;48.692;8.186;2024-02-21T09:28:17;4.93;;;1.80;;
59530;SDS011;45349;48.692;8.186;2024-02-21T09:30:44;9.37;;;2.40;;
59530;SDS011;45349;48.692;8.186;2024-02-21T09:33:12;10.23;;;3.27;;
59530;SDS011;45349;48.692;8.186;2024-02-21T09:35:39;7.83;;;2.47;;
59530;SDS011;45349;48.692;8.186;2024-02-21T09:38:05;10.60;;;2.70;;
59530;SDS011;45349;48.692;8.186;2024-02-21T09:40:32;7.63;;;2.83;;
59530;SDS011;45349;48.692;8.186;2024-02-21T09:43:03;9.47;;;3.30;;
59530;SDS011;45349;48.692;8.186;2024-02-21T09:45:32;11.20;;;3.87;;
59530;SDS011;45349;48.692;8.186;2024-02-21T09:48:19;14.77;;;5.97;;
59530;SDS011;45349;48.692;8.186;2024-02-21T09:50:56;10.73;;;4.97;;
59530;SDS011;45349;48.692;8.186;2024-02-21T09:53:25;11.00;;;4.00;;
59530;SDS011;45349;48.692;8.186;2024-02-21T09:55:53;10.73;;;5.37;;
59530;SDS011;45349;48.692;8.186;2024-02-21T09:58:21;7.63;;;3.33;;
59530;SDS011;45349;48.692;8.186;2024-02-21T10:00:51;11.27;;;3.70;;
59530;SDS011;45349;48.692;8.186;2024-02-21T10:03:19;13.53;;;3.57;;
59530;SDS011;45349;48.692;8.186;2024-02-21T10:05:47;10.20;;;3.20;;
59530;SDS011;45349;48.692;8.186;2024-02-21T10:08:16;8.40;;;3.23;;
59530;SDS011;45349;48.692;8.186;2024-02-21T10:10:43;9.53;;;3.37;;
59530;SDS011;45349;48.692;8.186;2024-02-21T10:13:10;9.23;;;2.60;;
59530;SDS011;45349;48.692;8.186;2024-02-21T10:15:37;9.43;;;3.30;;
59530;SDS011;45349;48.692;8.186;2024-02-21T10:18:04;8.47;;;2.87;;
59530;SDS011;45349;48.692;8.186;2024-02-21T10:20:33;9.03;;;3.27;;
59530;SDS011;45349;48.692;8.186;2024-02-21T10:23:00;10.70;;;4.40;;
59530;SDS011;45349;48.692;8.186;2024-02-21T10:25:27;10.53;;;3.87;;
59530;SDS011;45349;48.692;8.186;2024-02-21T10:27:54;10.07;;;2.70;;
59530;SDS011;45349;48.692;8.186;2024-02-21T10:30:20;11.60;;;2.60;;
59530;SDS011;45349;48.692;8.186;2024-02-21T10:32:50;7.07;;;2.77;;
59530;SDS011;45349;48.692;8.186;2024-02-21T10:35:25;7.67;;;1.90;;
59530;SDS011;45349;48.692;8.186;2024-02-21T10:37:54;13.00;;;2.57;;
59530;SDS011;45349;48.692;8.186;2024-02-21T10:40:22;6.43;;;2.87;;
59530;SDS011;45349;48.692;8.186;2024-02-21T10:42:50;11.57;;;3.20;;
59530;SDS011;45349;48.692;8.186;2024-02-21T10:45:22;11.27;;;2.73;;
59530;SDS011;45349;48.692;8.186;2024-02-21T10:47:51;8.03;;;2.77;;
59530;SDS011;45349;48.692;8.186;2024-02-21T10:50:22;7.50;;;2.40;;
59530;SDS011;45349;48.692;8.186;2024-02-21T10:52:54;9.20;;;2.40;;
59530;SDS011;45349;48.692;8.186;2024-02-21T10:55:32;9.57;;;2.43;;
59530;SDS011;45349;48.692;8.186;2024-02-21T10:58:05;10.03;;;2.40;;
59530;SDS011;45349;48.692;8.186;2024-02-21T11:00:32;10.77;;;3.07;;
59530;SDS011;45349;48.692;8.186;2024-02-21T11:02:59;9.43;;;2.53;;
59530;SDS011;45349;48.692;8.186;2024-02-21T11:05:26;9.40;;;2.80;;
59530;SDS011;45349;48.692;8.186;2024-02-21T11:07:54;7.07;;;2.40;;
59530;SDS011;45349;48.692;8.186;2024-02-21T11:10:23;8.27;;;2.50;;
59530;SDS011;45349;48.692;8.186;2024-02-21T11:12:52;9.50;;;2.83;;
59530;SDS011;45349;48.692;8.186;2024-02-21T11:15:24;7.10;;;2.40;;
59530;SDS011;45349;48.692;8.186;2024-02-21T11:17:55;6.93;;;2.30;;
59530;SDS011;45349;48.692;8.186;2024-02-21T11:20:31;6.90;;;2.33;;
59530;SDS011;45349;48.692;8.186;2024-02-21T11:22:59;9.80;;;2.33;;
59530;SDS011;45349;48.692;8.186;2024-02-21T11:25:27;7.40;;;2.47;;
59530;SDS011;45349;48.692;8.186;2024-02-21T11:27:59;9.43;;;2.53;;
59530;SDS011;45349;48.692;8.186;2024-02-21T11:30:27;7.33;;;2.70;;
59530;SDS011;45349;48.692;8.186;2024-02-21T11:32:59;7.47;;;2.97;;
59530;SDS011;45349;48.692;8.186;2024-02-21T11:35:30;11.23;;;2.63;;
59530;SDS011;45349;48.692;8.186;2024-02-21T11:38:07;5.93;;;2.60;;
59530;SDS011;45349;48.692;8.186;2024-02-21T11:40:37;8.10;;;2.77;;
59530;SDS011;45349;48.692;8.186;2024-02-21T11:43:05;8.60;;;2.90;;
59530;SDS011;45349;48.692;8.186;2024-02-21T11:45:32;8.83;;;2.80;;
59530;SDS011;45349;48.692;8.186;2024-02-21T11:47:59;9.70;;;2.93;;
59530;SDS011;45349;48.692;8.186;2024-02-21T11:50:28;7.77;;;3.03;;
59530;SDS011;45349;48.692;8.186;2024-02-21T11:52:55;5.30;;;2.13;;
59530;SDS011;45349;48.692;8.186;2024-02-21T11:55:22;11.33;;;2.97;;
59530;SDS011;45349;48.692;8.186;2024-02-21T11:57:51;7.43;;;2.50;;
59530;SDS011;45349;48.692;8.186;2024-02-21T12:00:18;8.47;;;2.70;;
59530;SDS011;45349;48.692;8.186;2024-02-21T12:02:46;8.20;;;2.80;;
59530;SDS011;45349;48.692;8.186;2024-02-21T12:05:13;7.33;;;2.33;;
59530;SDS011;45349;48.692;8.186;2024-02-21T12:07:40;6.77;;;2.60;;
59530;SDS011;45349;48.692;8.186;2024-02-21T12:10:08;11.20;;;3.47;;
59530;SDS011;45349;48.692;8.186;2024-02-21T12:12:36;9.73;;;4.23;;
59530;SDS011;45349;48.692;8.186;2024-02-21T12:15:04;13.00;;;4.40;;
59530;SDS011;45349;48.692;8.186;2024-02-21T12:17:32;12.53;;;4.50;;
59530;SDS011;45349;48.692;8.186;2024-02-21T12:20:00;13.37;;;4.70;;
59530;SDS011;45349;48.692;8.186;2024-02-21T12:22:29;9.30;;;3.83;;
59530;SDS011;45349;48.692;8.186;2024-02-21T12:25:02;10.17;;;3.60;;
59530;SDS011;45349;48.692;8.186;2024-02-21T12:27:29;9.70;;;3.47;;
59530;SDS011;45349;48.692;8.186;2024-02-21T12:29:56;7.77;;;2.97;;
59530;SDS011;45349;48.692;8.186;2024-02-21T12:32:24;9.47;;;3.77;;
59530;SDS011;45349;48.692;8.186;2024-02-21T12:34:50;11.20;;;3.33;;
59530;SDS011;45349;48.692;8.186;2024-02-21T12:37:17;8.17;;;3.00;;
59530;SDS011;45349;48.692;8.186;2024-02-21T12:39:45;10.20;;;3.00;;
59530;SDS011;45349;48.692;8.186;2024-02-21T12:42:11;10.93;;;3.23;;
59530;SDS011;45349;48.692;8.186;2024-02-21T12:44:38;6.87;;;3.20;;
59530;SDS011;45349;48.692;8.186;2024-02-21T12:47:05;6.87;;;2.90;;
59530;SDS011;45349;48.692;8.186;2024-02-21T12:49:34;7.97;;;3.33;;
59530;SDS011;45349;48.692;8.186;2024-02-21T12:52:01;7.53;;;3.47;;
59530;SDS011;45349;48.692;8.186;2024-02-21T12:54:28;7.17;;;2.90;;
59530;SDS011;45349;48.692;8.186;2024-02-21T12:56:56;8.73;;;3.03;;
59530;SDS011;45349;48.692;8.186;2024-02-21T12:59:23;9.00;;;2.97;;
59530;SDS011;45349;48.692;8.186;2024-02-21T13:01:51;10.20;;;3.20;;
59530;SDS011;45349;48.692;8.186;2024-02-21T13:04:18;8.97;;;3.10;;
59530;SDS011;45349;48.692;8.186;2024-02-21T13:06:47;10.93;;;3.20;;
59530;SDS011;45349;48.692;8.186;2024-02-21T13:09:14;7.33;;;3.40;;
59530;SDS011;45349;48.692;8.186;2024-02-21T13:11:41;6.50;;;2.70;;
59530;SDS011;45349;48.692;8.186;2024-02-21T13:14:09;7.50;;;2.80;;
59530;SDS011;45349;48.692;8.186;2024-02-21T13:16:36;9.03;;;3.30;;
59530;SDS011;45349;48.692;8.186;2024-02-21T13:19:05;9.17;;;3.17;;
59530;SDS011;45349;48.692;8.186;2024-02-21T13:21:32;10.40;;;3.03;;
59530;SDS011;45349;48.692;8.186;2024-02-21T13:24:00;10.73;;;3.00;;
59530;SDS011;45349;48.692;8.186;2024-02-21T13:26:27;11.67;;;3.83;;
59530;SDS011;45349;48.692;8.186;2024-02-21T13:28:54;5.33;;;2.53;;
59530;SDS011;45349;48.692;8.186;2024-02-21T13:31:21;11.97;;;2.70;;
59530;SDS011;45349;48.692;8.186;2024-02-21T13:33:48;7.67;;;2.93;;
59530;SDS011;45349;48.692;8.186;2024-02-21T13:36:15;7.80;;;2.80;;
59530;SDS011;45349;48.692;8.186;2024-02-21T13:38:41;10.97;;;3.03;;
59530;SDS011;45349;48.692;8.186;2024-02-21T13:41:09;8.23;;;3.20;;
59530;SDS011;45349;48.692;8.186;2024-02-21T13:43:36;8.03;;;3.43;;
59530;SDS011;45349;48.692;8.186;2024-02-21T13:46:03;10.90;;;3.70;;
59530;SDS011;45349;48.692;8.186;2024-02-21T13:48:34;7.73;;;3.20;;
59530;SDS011;45349;48.692;8.186;2024-02-21T13:51:01;6.93;;;3.10;;
59530;SDS011;45349;48.692;8.186;2024-02-21T13:53:28;7.67;;;2.90;;
59530;SDS011;45349;48.692;8.186;2024-02-21T13:55:55;9.30;;;3.10;;
59530;SDS011;45349;48.692;8.186;2024-02-21T13:58:23;9.23;;;3.27;;
59530;SDS011;45349;48.692;8.186;2024-02-21T14:00:51;7.20;;;3.33;;
59530;SDS011;45349;48.692;8.186;2024-02-21T14:03:17;10.80;;;3.40;;
59530;SDS011;45349;48.692;8.186;2024-02-21T14:05:45;8.67;;;3.00;;
59530;SDS011;45349;48.692;8.186;2024-02-21T14:08:13;9.37;;;3.20;;
59530;SDS011;45349;48.692;8.186;2024-02-21T14:10:40;8.97;;;2.90;;
59530;SDS011;45349;48.692;8.186;2024-02-21T14:13:06;9.00;;;3.33;;
59530;SDS011;45349;48.692;8.186;2024-02-21T14:15:34;10.20;;;3.77;;
59530;SDS011;45349;48.692;8.186;2024-02-21T14:18:02;10.43;;;5.37;;
59530;SDS011;45349;48.692;8.186;2024-02-21T14:20:31;11.60;;;4.90;;
59530;SDS011;45349;48.692;8.186;2024-02-21T14:22:57;10.03;;;4.53;;
59530;SDS011;45349;48.692;8.186;2024-02-21T14:25:24;13.80;;;6.90;;
59530;SDS011;45349;48.692;8.186;2024-02-21T14:27:50;14.93;;;6.43;;
59530;SDS011;45349;48.692;8.186;2024-02-21T14:30:17;7.70;;;3.23;;
59530;SDS011;45349;48.692;8.186;2024-02-21T14:32:45;7.37;;;2.97;;
59530;SDS011;45349;48.692;8.186;2024-02-21T14:35:12;6.07;;;2.87;;
59530;SDS011;45349;48.692;8.186;2024-02-21T14:37:40;7.37;;;2.90;;
59530;SDS011;45349;48.692;8.186;2024-02-21T14:40:07;9.50;;;3.60;;
59530;SDS011;45349;48.692;8.186;2024-02-21T14:42:34;8.20;;;3.43;;